sensor_id;sensor_type;location;lat;lon;timestamp;P1;durP1;ratioP1;P2;durP2;ratioP2
60488;SDS011;46331;49.252;8.904;2023-09-18T00:00:40;8.13;;;2.30;;
60488;SDS011;46331;49.252;8.904;2023-09-18T00:01:22;11.43;;;2.53;;
60488;SDS011;46331;49.252;8.904;2023-09-18T00:02:03;7.60;;;1.92;;
60488;SDS011;46331;49.252;8.904;2023-09-18T00:02:44;5.50;;;2.20;;
60488;SDS011;46331;49.252;8.904;2023-09-18T00:03:24;4.72;;;2.20;;
60488;SDS011;46331;49.252;8.904;2023-09-18T00:04:05;5.38;;;2.20;;
60488;SDS011;46331;49.252;8.904;2023-09-18T00:04:46;4.68;;;2.03;;
60488;SDS011;46331;49.252;8.904;2023-09-18T00:05:28;4.70;;;1.90;;
60488;SDS011;46331;49.252;8.904;2023-09-18T00:06:09;5.00;;;2.10;;
60488;SDS011;46331;49.252;8.904;2023-09-18T00:06:51;5.97;;;1.90;;
60488;SDS011;46331;49.252;8.904;2023-09-18T00:07:32;7.15;;;2.97;;
60488;SDS011;46331;49.252;8.904;2023-09-18T00:08:13;7.93;;;2.00;;
60488;SDS011;46331;49.252;8.904;2023-09-18T00:08:54;4.05;;;1.75;;
60488;SDS011;46331;49.252;8.904;2023-09-18T00:09:34;5.07;;;2.50;;
60488;SDS011;46331;49.252;8.904;2023-09-18T00:10:15;6.13;;;1.90;;
60488;SDS011;46331;49.252;8.904;2023-09-18T00:10:56;4.32;;;1.90;;
60488;SDS011;46331;49.252;8.904;2023-09-18T00:11:37;4.45;;;1.80;;
60488;SDS011;46331;49.252;8.904;2023-09-18T00:12:21;5.28;;;2.00;;
60488;SDS011;46331;49.252;8.904;2023-09-18T00:13:02;5.03;;;1.70;;
60488;SDS011;46331;49.252;8.904;2023-09-18T00:13:42;6.07;;;2.08;;
60488;SDS011;46331;49.252;8.904;2023-09-18T00:14:23;6.70;;;2.50;;
60488;SDS011;46331;49.252;8.904;2023-09-18T00:15:04;5.60;;;1.83;;
60488;SDS011;46331;49.252;8.904;2023-09-18T00:15:45;4.93;;;2.20;;
60488;SDS011;46331;49.252;8.904;2023-09-18T00:16:29;5.90;;;1.95;;
60488;SDS011;46331;49.252;8.904;2023-09-18T00:17:09;4.95;;;1.80;;
60488;SDS011;46331;49.252;8.904;2023-09-18T00:17:50;5.03;;;2.00;;
60488;SDS011;46331;49.252;8.904;2023-09-18T00:18:31;4.40;;;1.70;;
60488;SDS011;46331;49.252;8.904;2023-09-18T00:19:13;4.60;;;2.00;;
60488;SDS011;46331;49.252;8.904;2023-09-18T00:19:54;4.30;;;2.00;;
60488;SDS011;46331;49.252;8.904;2023-09-18T00:20:35;4.32;;;1.90;;
60488;SDS011;46331;49.252;8.904;2023-09-18T00:21:15;5.23;;;2.00;;
60488;SDS011;46331;49.252;8.904;2023-09-18T00:21:56;5.60;;;2.20;;
60488;SDS011;46331;49.252;8.904;2023-09-18T00:22:40;4.70;;;1.95;;
60488;SDS011;46331;49.252;8.904;2023-09-18T00:23:21;5.00;;;2.20;;
60488;SDS011;46331;49.252;8.904;2023-09-18T00:24:02;5.00;;;2.17;;
60488;SDS011;46331;49.252;8.904;2023-09-18T00:24:43;5.85;;;2.00;;
60488;SDS011;46331;49.252;8.904;2023-09-18T00:25:24;5.20;;;2.27;;
60488;SDS011;46331;49.252;8.904;2023-09-18T00:26:04;6.63;;;2.53;;
60488;SDS011;46331;49.252;8.904;2023-09-18T00:26:45;4.20;;;1.98;;
60488;SDS011;46331;49.252;8.904;2023-09-18T00:27:28;5.27;;;2.10;;
60488;SDS011;46331;49.252;8.904;2023-09-18T00:28:09;6.07;;;2.22;;
60488;SDS011;46331;49.252;8.904;2023-09-18T00:28:50;5.05;;;2.13;;
60488;SDS011;46331;49.252;8.904;2023-09-18T00:29:31;4.55;;;1.95;;
60488;SDS011;46331;49.252;8.904;2023-09-18T00:30:12;4.70;;;2.00;;
60488;SDS011;46331;49.252;8.904;2023-09-18T00:30:52;6.47;;;2.03;;
60488;SDS011;46331;49.252;8.904;2023-09-18T00:31:33;5.72;;;2.10;;
60488;SDS011;46331;49.252;8.904;2023-09-18T00:32:14;5.90;;;2.00;;
60488;SDS011;46331;49.252;8.904;2023-09-18T00:32:55;5.00;;;1.98;;
60488;SDS011;46331;49.252;8.904;2023-09-18T00:33:35;6.97;;;2.80;;
60488;SDS011;46331;49.252;8.904;2023-09-18T00:34:16;7.43;;;1.97;;
60488;SDS011;46331;49.252;8.904;2023-09-18T00:34:57;5.57;;;2.33;;
60488;SDS011;46331;49.252;8.904;2023-09-18T00:35:37;5.53;;;2.00;;
60488;SDS011;46331;49.252;8.904;2023-09-18T00:36:18;7.07;;;2.70;;
60488;SDS011;46331;49.252;8.904;2023-09-18T00:36:59;5.68;;;2.20;;
60488;SDS011;46331;49.252;8.904;2023-09-18T00:37:39;5.87;;;2.10;;
60488;SDS011;46331;49.252;8.904;2023-09-18T00:38:20;5.00;;;2.10;;
60488;SDS011;46331;49.252;8.904;2023-09-18T00:39:01;5.70;;;2.20;;
60488;SDS011;46331;49.252;8.904;2023-09-18T00:39:43;5.47;;;2.20;;
60488;SDS011;46331;49.252;8.904;2023-09-18T00:40:24;5.90;;;2.20;;
60488;SDS011;46331;49.252;8.904;2023-09-18T00:41:05;5.25;;;2.08;;
60488;SDS011;46331;49.252;8.904;2023-09-18T00:41:46;4.90;;;1.98;;
60488;SDS011;46331;49.252;8.904;2023-09-18T00:42:29;7.25;;;2.58;;
60488;SDS011;46331;49.252;8.904;2023-09-18T00:43:10;4.50;;;1.97;;
60488;SDS011;46331;49.252;8.904;2023-09-18T00:43:51;5.50;;;2.22;;
60488;SDS011;46331;49.252;8.904;2023-09-18T00:44:32;5.45;;;2.20;;
60488;SDS011;46331;49.252;8.904;2023-09-18T00:45:13;6.33;;;2.47;;
60488;SDS011;46331;49.252;8.904;2023-09-18T00:45:53;5.35;;;2.08;;
60488;SDS011;46331;49.252;8.904;2023-09-18T00:46:34;5.47;;;2.08;;
60488;SDS011;46331;49.252;8.904;2023-09-18T00:47:15;5.18;;;2.17;;
60488;SDS011;46331;49.252;8.904;2023-09-18T00:47:57;4.70;;;2.07;;
60488;SDS011;46331;49.252;8.904;2023-09-18T00:48:38;5.43;;;2.30;;
60488;SDS011;46331;49.252;8.904;2023-09-18T00:49:18;4.53;;;2.00;;
60488;SDS011;46331;49.252;8.904;2023-09-18T00:50:00;4.80;;;2.05;;
60488;SDS011;46331;49.252;8.904;2023-09-18T00:50:42;4.63;;;2.10;;
60488;SDS011;46331;49.252;8.904;2023-09-18T00:51:24;4.03;;;1.85;;
60488;SDS011;46331;49.252;8.904;2023-09-18T00:52:05;5.03;;;2.10;;
60488;SDS011;46331;49.252;8.904;2023-09-18T00:52:47;6.68;;;2.13;;
60488;SDS011;46331;49.252;8.904;2023-09-18T00:53:29;5.18;;;2.25;;
60488;SDS011;46331;49.252;8.904;2023-09-18T00:54:11;4.55;;;2.03;;
60488;SDS011;46331;49.252;8.904;2023-09-18T00:54:52;4.60;;;1.90;;
60488;SDS011;46331;49.252;8.904;2023-09-18T00:55:33;5.40;;;2.17;;
60488;SDS011;46331;49.252;8.904;2023-09-18T00:56:16;4.90;;;1.95;;
60488;SDS011;46331;49.252;8.904;2023-09-18T00:56:58;6.63;;;2.10;;
60488;SDS011;46331;49.252;8.904;2023-09-18T00:57:39;5.82;;;2.40;;
60488;SDS011;46331;49.252;8.904;2023-09-18T00:58:20;4.87;;;2.10;;
60488;SDS011;46331;49.252;8.904;2023-09-18T00:59:02;5.20;;;2.30;;
60488;SDS011;46331;49.252;8.904;2023-09-18T00:59:46;5.85;;;2.10;;
60488;SDS011;46331;49.252;8.904;2023-09-18T01:00:26;5.90;;;2.00;;
60488;SDS011;46331;49.252;8.904;2023-09-18T01:01:07;5.23;;;2.30;;
60488;SDS011;46331;49.252;8.904;2023-09-18T01:01:50;5.10;;;2.00;;
60488;SDS011;46331;49.252;8.904;2023-09-18T01:02:31;4.68;;;2.05;;
60488;SDS011;46331;49.252;8.904;2023-09-18T01:03:12;4.50;;;2.00;;
60488;SDS011;46331;49.252;8.904;2023-09-18T01:03:53;4.47;;;1.80;;
60488;SDS011;46331;49.252;8.904;2023-09-18T01:04:34;4.47;;;2.10;;
60488;SDS011;46331;49.252;8.904;2023-09-18T01:05:18;4.60;;;2.20;;
60488;SDS011;46331;49.252;8.904;2023-09-18T01:06:00;4.70;;;1.90;;
60488;SDS011;46331;49.252;8.904;2023-09-18T01:06:41;5.50;;;2.05;;
60488;SDS011;46331;49.252;8.904;2023-09-18T01:07:21;4.03;;;1.83;;
60488;SDS011;46331;49.252;8.904;2023-09-18T01:08:02;5.50;;;2.20;;
60488;SDS011;46331;49.252;8.904;2023-09-18T01:08:45;4.40;;;2.03;;
60488;SDS011;46331;49.252;8.904;2023-09-18T01:09:27;7.07;;;1.98;;
60488;SDS011;46331;49.252;8.904;2023-09-18T01:10:08;7.43;;;2.10;;
60488;SDS011;46331;49.252;8.904;2023-09-18T01:11:35;6.22;;;2.70;;
60488;SDS011;46331;49.252;8.904;2023-09-18T01:13:11;4.25;;;2.10;;
60488;SDS011;46331;49.252;8.904;2023-09-18T01:15:12;5.60;;;2.20;;
60488;SDS011;46331;49.252;8.904;2023-09-18T01:16:02;6.53;;;2.30;;
60488;SDS011;46331;49.252;8.904;2023-09-18T01:16:59;4.97;;;2.13;;
60488;SDS011;46331;49.252;8.904;2023-09-18T01:17:44;5.03;;;2.25;;
60488;SDS011;46331;49.252;8.904;2023-09-18T01:18:26;4.80;;;2.08;;
60488;SDS011;46331;49.252;8.904;2023-09-18T01:19:07;5.25;;;2.22;;
60488;SDS011;46331;49.252;8.904;2023-09-18T01:19:48;4.70;;;2.15;;
60488;SDS011;46331;49.252;8.904;2023-09-18T01:20:29;5.33;;;2.00;;
60488;SDS011;46331;49.252;8.904;2023-09-18T01:21:09;5.38;;;1.90;;
60488;SDS011;46331;49.252;8.904;2023-09-18T01:21:50;4.90;;;2.10;;
60488;SDS011;46331;49.252;8.904;2023-09-18T01:22:31;4.43;;;2.10;;
60488;SDS011;46331;49.252;8.904;2023-09-18T01:23:12;5.13;;;2.10;;
60488;SDS011;46331;49.252;8.904;2023-09-18T01:23:53;4.50;;;2.00;;
60488;SDS011;46331;49.252;8.904;2023-09-18T01:24:34;6.30;;;2.33;;
60488;SDS011;46331;49.252;8.904;2023-09-18T01:25:16;5.20;;;2.00;;
60488;SDS011;46331;49.252;8.904;2023-09-18T01:25:56;4.55;;;2.20;;
60488;SDS011;46331;49.252;8.904;2023-09-18T01:26:37;5.30;;;2.27;;
60488;SDS011;46331;49.252;8.904;2023-09-18T01:27:18;4.32;;;2.03;;
60488;SDS011;46331;49.252;8.904;2023-09-18T01:27:59;5.00;;;1.80;;
60488;SDS011;46331;49.252;8.904;2023-09-18T01:28:40;5.15;;;2.17;;
60488;SDS011;46331;49.252;8.904;2023-09-18T01:29:21;4.10;;;1.80;;
60488;SDS011;46331;49.252;8.904;2023-09-18T01:30:01;4.47;;;1.80;;
60488;SDS011;46331;49.252;8.904;2023-09-18T01:30:44;4.60;;;2.20;;
60488;SDS011;46331;49.252;8.904;2023-09-18T01:31:25;4.43;;;2.00;;
60488;SDS011;46331;49.252;8.904;2023-09-18T01:32:06;7.30;;;2.25;;
60488;SDS011;46331;49.252;8.904;2023-09-18T01:32:47;4.97;;;2.07;;
60488;SDS011;46331;49.252;8.904;2023-09-18T01:33:32;4.77;;;2.40;;
60488;SDS011;46331;49.252;8.904;2023-09-18T01:34:16;4.22;;;2.20;;
60488;SDS011;46331;49.252;8.904;2023-09-18T01:35:01;4.95;;;1.90;;
60488;SDS011;46331;49.252;8.904;2023-09-18T01:35:45;4.85;;;1.95;;
60488;SDS011;46331;49.252;8.904;2023-09-18T01:36:28;5.43;;;2.38;;
60488;SDS011;46331;49.252;8.904;2023-09-18T01:37:10;4.65;;;1.80;;
60488;SDS011;46331;49.252;8.904;2023-09-18T01:37:53;5.03;;;1.90;;
60488;SDS011;46331;49.252;8.904;2023-09-18T01:38:35;4.45;;;1.90;;
60488;SDS011;46331;49.252;8.904;2023-09-18T01:39:17;5.63;;;2.00;;
60488;SDS011;46331;49.252;8.904;2023-09-18T01:39:59;4.70;;;2.05;;
60488;SDS011;46331;49.252;8.904;2023-09-18T01:40:42;5.10;;;2.40;;
60488;SDS011;46331;49.252;8.904;2023-09-18T01:41:24;4.93;;;2.20;;
60488;SDS011;46331;49.252;8.904;2023-09-18T01:42:05;5.78;;;2.05;;
60488;SDS011;46331;49.252;8.904;2023-09-18T01:42:47;5.40;;;2.28;;
60488;SDS011;46331;49.252;8.904;2023-09-18T01:43:27;6.83;;;2.23;;
60488;SDS011;46331;49.252;8.904;2023-09-18T01:44:08;4.57;;;2.10;;
60488;SDS011;46331;49.252;8.904;2023-09-18T01:44:48;5.28;;;1.95;;
60488;SDS011;46331;49.252;8.904;2023-09-18T01:45:29;5.00;;;2.20;;
60488;SDS011;46331;49.252;8.904;2023-09-18T01:46:10;4.43;;;1.90;;
60488;SDS011;46331;49.252;8.904;2023-09-18T01:46:51;4.65;;;2.10;;
60488;SDS011;46331;49.252;8.904;2023-09-18T01:47:36;5.78;;;2.22;;
60488;SDS011;46331;49.252;8.904;2023-09-18T01:48:17;4.50;;;1.67;;
60488;SDS011;46331;49.252;8.904;2023-09-18T01:48:58;5.00;;;2.17;;
60488;SDS011;46331;49.252;8.904;2023-09-18T01:49:39;5.55;;;2.13;;
60488;SDS011;46331;49.252;8.904;2023-09-18T01:50:21;5.00;;;1.70;;
60488;SDS011;46331;49.252;8.904;2023-09-18T01:51:02;4.20;;;1.80;;
60488;SDS011;46331;49.252;8.904;2023-09-18T01:51:42;4.75;;;1.90;;
60488;SDS011;46331;49.252;8.904;2023-09-18T01:52:23;5.38;;;2.00;;
60488;SDS011;46331;49.252;8.904;2023-09-18T01:53:04;5.73;;;2.23;;
60488;SDS011;46331;49.252;8.904;2023-09-18T01:53:44;5.80;;;2.50;;
60488;SDS011;46331;49.252;8.904;2023-09-18T01:54:26;5.10;;;2.38;;
60488;SDS011;46331;49.252;8.904;2023-09-18T01:55:07;4.40;;;2.03;;
60488;SDS011;46331;49.252;8.904;2023-09-18T01:55:48;5.65;;;1.90;;
60488;SDS011;46331;49.252;8.904;2023-09-18T01:56:29;4.60;;;2.20;;
60488;SDS011;46331;49.252;8.904;2023-09-18T01:57:10;4.50;;;2.10;;
60488;SDS011;46331;49.252;8.904;2023-09-18T01:57:52;4.88;;;2.20;;
60488;SDS011;46331;49.252;8.904;2023-09-18T01:58:34;5.57;;;2.27;;
60488;SDS011;46331;49.252;8.904;2023-09-18T01:59:15;5.75;;;2.33;;
60488;SDS011;46331;49.252;8.904;2023-09-18T01:59:57;5.45;;;1.98;;
60488;SDS011;46331;49.252;8.904;2023-09-18T02:00:37;4.97;;;2.03;;
60488;SDS011;46331;49.252;8.904;2023-09-18T02:01:18;4.78;;;1.92;;
60488;SDS011;46331;49.252;8.904;2023-09-18T02:01:59;5.13;;;2.10;;
60488;SDS011;46331;49.252;8.904;2023-09-18T02:02:40;7.03;;;2.22;;
60488;SDS011;46331;49.252;8.904;2023-09-18T02:03:21;5.17;;;1.87;;
60488;SDS011;46331;49.252;8.904;2023-09-18T02:04:02;4.38;;;1.98;;
60488;SDS011;46331;49.252;8.904;2023-09-18T02:04:42;5.00;;;2.10;;
60488;SDS011;46331;49.252;8.904;2023-09-18T02:05:25;4.63;;;1.92;;
60488;SDS011;46331;49.252;8.904;2023-09-18T02:06:05;5.23;;;2.13;;
60488;SDS011;46331;49.252;8.904;2023-09-18T02:06:47;6.03;;;1.98;;
60488;SDS011;46331;49.252;8.904;2023-09-18T02:07:28;4.18;;;2.10;;
60488;SDS011;46331;49.252;8.904;2023-09-18T02:08:09;6.63;;;2.37;;
60488;SDS011;46331;49.252;8.904;2023-09-18T02:08:50;5.03;;;2.22;;
60488;SDS011;46331;49.252;8.904;2023-09-18T02:09:30;4.17;;;1.87;;
60488;SDS011;46331;49.252;8.904;2023-09-18T02:10:11;4.43;;;2.17;;
60488;SDS011;46331;49.252;8.904;2023-09-18T02:10:54;4.85;;;2.10;;
60488;SDS011;46331;49.252;8.904;2023-09-18T02:11:38;11.40;;;2.30;;
60488;SDS011;46331;49.252;8.904;2023-09-18T02:12:22;9.10;;;2.67;;
60488;SDS011;46331;49.252;8.904;2023-09-18T02:13:03;5.03;;;2.20;;
60488;SDS011;46331;49.252;8.904;2023-09-18T02:13:44;5.85;;;2.20;;
60488;SDS011;46331;49.252;8.904;2023-09-18T02:14:24;7.20;;;2.50;;
60488;SDS011;46331;49.252;8.904;2023-09-18T02:15:06;4.07;;;1.88;;
60488;SDS011;46331;49.252;8.904;2023-09-18T02:15:47;5.80;;;2.30;;
60488;SDS011;46331;49.252;8.904;2023-09-18T02:16:28;5.72;;;2.78;;
60488;SDS011;46331;49.252;8.904;2023-09-18T02:17:08;5.53;;;2.33;;
60488;SDS011;46331;49.252;8.904;2023-09-18T02:17:49;5.63;;;2.17;;
60488;SDS011;46331;49.252;8.904;2023-09-18T02:18:30;8.15;;;2.90;;
60488;SDS011;46331;49.252;8.904;2023-09-18T02:19:11;5.65;;;2.72;;
60488;SDS011;46331;49.252;8.904;2023-09-18T02:19:57;5.22;;;2.30;;
60488;SDS011;46331;49.252;8.904;2023-09-18T02:20:42;7.53;;;2.65;;
60488;SDS011;46331;49.252;8.904;2023-09-18T02:21:24;4.68;;;2.22;;
60488;SDS011;46331;49.252;8.904;2023-09-18T02:22:06;9.07;;;2.33;;
60488;SDS011;46331;49.252;8.904;2023-09-18T02:22:47;5.82;;;2.38;;
60488;SDS011;46331;49.252;8.904;2023-09-18T02:23:27;5.50;;;2.38;;
60488;SDS011;46331;49.252;8.904;2023-09-18T02:24:08;4.90;;;2.28;;
60488;SDS011;46331;49.252;8.904;2023-09-18T02:24:49;4.67;;;2.33;;
60488;SDS011;46331;49.252;8.904;2023-09-18T02:25:33;5.15;;;2.63;;
60488;SDS011;46331;49.252;8.904;2023-09-18T02:26:14;4.97;;;2.40;;
60488;SDS011;46331;49.252;8.904;2023-09-18T02:26:54;6.65;;;2.80;;
60488;SDS011;46331;49.252;8.904;2023-09-18T02:27:35;6.20;;;2.80;;
60488;SDS011;46331;49.252;8.904;2023-09-18T02:28:16;7.53;;;2.60;;
60488;SDS011;46331;49.252;8.904;2023-09-18T02:29:00;6.10;;;2.30;;
60488;SDS011;46331;49.252;8.904;2023-09-18T02:29:44;5.90;;;2.60;;
60488;SDS011;46331;49.252;8.904;2023-09-18T02:30:27;5.30;;;2.50;;
60488;SDS011;46331;49.252;8.904;2023-09-18T02:31:08;6.10;;;2.67;;
60488;SDS011;46331;49.252;8.904;2023-09-18T02:31:49;4.70;;;2.37;;
60488;SDS011;46331;49.252;8.904;2023-09-18T02:32:30;4.67;;;2.27;;
60488;SDS011;46331;49.252;8.904;2023-09-18T02:33:10;5.55;;;2.53;;
60488;SDS011;46331;49.252;8.904;2023-09-18T02:33:51;4.80;;;2.20;;
60488;SDS011;46331;49.252;8.904;2023-09-18T02:34:32;5.97;;;2.50;;
60488;SDS011;46331;49.252;8.904;2023-09-18T02:35:14;9.43;;;3.55;;
60488;SDS011;46331;49.252;8.904;2023-09-18T02:35:54;8.33;;;3.17;;
60488;SDS011;46331;49.252;8.904;2023-09-18T02:36:38;8.07;;;2.85;;
60488;SDS011;46331;49.252;8.904;2023-09-18T02:37:19;8.35;;;2.80;;
60488;SDS011;46331;49.252;8.904;2023-09-18T02:37:59;5.63;;;2.67;;
60488;SDS011;46331;49.252;8.904;2023-09-18T02:38:42;5.90;;;2.70;;
60488;SDS011;46331;49.252;8.904;2023-09-18T02:39:23;10.63;;;2.65;;
60488;SDS011;46331;49.252;8.904;2023-09-18T02:40:08;6.18;;;2.40;;
60488;SDS011;46331;49.252;8.904;2023-09-18T02:40:49;5.63;;;2.00;;
60488;SDS011;46331;49.252;8.904;2023-09-18T02:41:29;6.53;;;2.30;;
60488;SDS011;46331;49.252;8.904;2023-09-18T02:42:10;4.65;;;2.20;;
60488;SDS011;46331;49.252;8.904;2023-09-18T02:42:50;5.87;;;2.20;;
60488;SDS011;46331;49.252;8.904;2023-09-18T02:43:31;5.45;;;2.20;;
60488;SDS011;46331;49.252;8.904;2023-09-18T02:44:12;6.07;;;2.77;;
60488;SDS011;46331;49.252;8.904;2023-09-18T02:44:52;8.85;;;2.90;;
60488;SDS011;46331;49.252;8.904;2023-09-18T02:45:33;5.37;;;2.60;;
60488;SDS011;46331;49.252;8.904;2023-09-18T02:46:14;5.50;;;2.35;;
60488;SDS011;46331;49.252;8.904;2023-09-18T02:46:54;5.15;;;2.67;;
60488;SDS011;46331;49.252;8.904;2023-09-18T02:47:37;5.65;;;2.45;;
60488;SDS011;46331;49.252;8.904;2023-09-18T02:48:21;5.07;;;2.22;;
60488;SDS011;46331;49.252;8.904;2023-09-18T02:49:02;5.20;;;2.47;;
60488;SDS011;46331;49.252;8.904;2023-09-18T02:49:43;6.03;;;2.95;;
60488;SDS011;46331;49.252;8.904;2023-09-18T02:50:23;5.97;;;2.50;;
60488;SDS011;46331;49.252;8.904;2023-09-18T02:51:05;5.78;;;2.60;;
60488;SDS011;46331;49.252;8.904;2023-09-18T02:51:46;5.65;;;2.70;;
60488;SDS011;46331;49.252;8.904;2023-09-18T02:52:26;5.82;;;2.97;;
60488;SDS011;46331;49.252;8.904;2023-09-18T02:53:07;6.37;;;3.03;;
60488;SDS011;46331;49.252;8.904;2023-09-18T02:53:51;5.32;;;2.47;;
60488;SDS011;46331;49.252;8.904;2023-09-18T02:54:32;6.93;;;2.50;;
60488;SDS011;46331;49.252;8.904;2023-09-18T02:55:13;6.22;;;2.50;;
60488;SDS011;46331;49.252;8.904;2023-09-18T02:55:54;5.13;;;2.50;;
60488;SDS011;46331;49.252;8.904;2023-09-18T02:56:38;6.13;;;2.67;;
60488;SDS011;46331;49.252;8.904;2023-09-18T02:57:19;4.80;;;2.40;;
60488;SDS011;46331;49.252;8.904;2023-09-18T02:58:00;5.80;;;2.45;;
60488;SDS011;46331;49.252;8.904;2023-09-18T02:58:41;6.10;;;3.10;;
60488;SDS011;46331;49.252;8.904;2023-09-18T02:59:21;7.57;;;2.70;;
60488;SDS011;46331;49.252;8.904;2023-09-18T03:00:02;6.55;;;3.03;;
60488;SDS011;46331;49.252;8.904;2023-09-18T03:00:44;5.75;;;2.70;;
60488;SDS011;46331;49.252;8.904;2023-09-18T03:01:25;4.85;;;2.38;;
60488;SDS011;46331;49.252;8.904;2023-09-18T03:02:07;7.25;;;2.75;;
60488;SDS011;46331;49.252;8.904;2023-09-18T03:02:47;5.53;;;2.53;;
60488;SDS011;46331;49.252;8.904;2023-09-18T03:03:28;5.75;;;2.30;;
60488;SDS011;46331;49.252;8.904;2023-09-18T03:04:09;6.20;;;2.27;;
60488;SDS011;46331;49.252;8.904;2023-09-18T03:04:49;6.88;;;2.88;;
60488;SDS011;46331;49.252;8.904;2023-09-18T03:05:31;6.53;;;2.80;;
60488;SDS011;46331;49.252;8.904;2023-09-18T03:06:12;11.20;;;3.15;;
60488;SDS011;46331;49.252;8.904;2023-09-18T03:06:53;6.53;;;2.90;;
60488;SDS011;46331;49.252;8.904;2023-09-18T03:07:34;6.10;;;3.00;;
60488;SDS011;46331;49.252;8.904;2023-09-18T03:08:18;6.45;;;2.75;;
60488;SDS011;46331;49.252;8.904;2023-09-18T03:08:58;6.87;;;2.90;;
60488;SDS011;46331;49.252;8.904;2023-09-18T03:09:39;7.20;;;2.92;;
60488;SDS011;46331;49.252;8.904;2023-09-18T03:10:20;6.23;;;2.67;;
60488;SDS011;46331;49.252;8.904;2023-09-18T03:11:01;4.82;;;2.40;;
60488;SDS011;46331;49.252;8.904;2023-09-18T03:11:41;5.47;;;2.45;;
60488;SDS011;46331;49.252;8.904;2023-09-18T03:12:24;5.88;;;2.72;;
60488;SDS011;46331;49.252;8.904;2023-09-18T03:13:05;5.88;;;2.70;;
60488;SDS011;46331;49.252;8.904;2023-09-18T03:13:47;6.73;;;2.63;;
60488;SDS011;46331;49.252;8.904;2023-09-18T03:14:28;7.20;;;3.05;;
60488;SDS011;46331;49.252;8.904;2023-09-18T03:15:09;7.18;;;2.80;;
60488;SDS011;46331;49.252;8.904;2023-09-18T03:15:51;5.20;;;2.88;;
60488;SDS011;46331;49.252;8.904;2023-09-18T03:16:32;6.43;;;2.73;;
60488;SDS011;46331;49.252;8.904;2023-09-18T03:17:13;8.55;;;3.25;;
60488;SDS011;46331;49.252;8.904;2023-09-18T03:17:54;5.95;;;3.03;;
60488;SDS011;46331;49.252;8.904;2023-09-18T03:18:35;5.32;;;2.78;;
60488;SDS011;46331;49.252;8.904;2023-09-18T03:19:16;5.30;;;2.50;;
60488;SDS011;46331;49.252;8.904;2023-09-18T03:19:57;5.82;;;2.83;;
60488;SDS011;46331;49.252;8.904;2023-09-18T03:20:37;7.32;;;2.70;;
60488;SDS011;46331;49.252;8.904;2023-09-18T03:21:18;6.93;;;2.70;;
60488;SDS011;46331;49.252;8.904;2023-09-18T03:21:59;6.32;;;2.70;;
60488;SDS011;46331;49.252;8.904;2023-09-18T03:22:42;7.22;;;2.92;;
60488;SDS011;46331;49.252;8.904;2023-09-18T03:23:23;6.37;;;2.70;;
60488;SDS011;46331;49.252;8.904;2023-09-18T03:24:04;5.93;;;2.90;;
60488;SDS011;46331;49.252;8.904;2023-09-18T03:24:45;6.55;;;2.65;;
60488;SDS011;46331;49.252;8.904;2023-09-18T03:25:26;7.82;;;3.13;;
60488;SDS011;46331;49.252;8.904;2023-09-18T03:26:07;6.53;;;3.40;;
60488;SDS011;46331;49.252;8.904;2023-09-18T03:26:47;8.57;;;4.10;;
60488;SDS011;46331;49.252;8.904;2023-09-18T03:27:29;6.63;;;3.17;;
60488;SDS011;46331;49.252;8.904;2023-09-18T03:28:12;5.97;;;2.97;;
60488;SDS011;46331;49.252;8.904;2023-09-18T03:28:52;6.00;;;2.83;;
60488;SDS011;46331;49.252;8.904;2023-09-18T03:29:33;5.90;;;2.47;;
60488;SDS011;46331;49.252;8.904;2023-09-18T03:30:14;5.40;;;2.65;;
60488;SDS011;46331;49.252;8.904;2023-09-18T03:30:57;7.30;;;2.83;;
60488;SDS011;46331;49.252;8.904;2023-09-18T03:31:38;5.35;;;2.20;;
60488;SDS011;46331;49.252;8.904;2023-09-18T03:32:19;5.37;;;2.53;;
60488;SDS011;46331;49.252;8.904;2023-09-18T03:32:59;5.75;;;2.90;;
60488;SDS011;46331;49.252;8.904;2023-09-18T03:33:40;6.43;;;2.90;;
60488;SDS011;46331;49.252;8.904;2023-09-18T03:34:21;8.25;;;2.88;;
60488;SDS011;46331;49.252;8.904;2023-09-18T03:35:02;8.10;;;3.55;;
60488;SDS011;46331;49.252;8.904;2023-09-18T03:35:50;6.28;;;3.17;;
60488;SDS011;46331;49.252;8.904;2023-09-18T03:36:37;5.87;;;2.63;;
60488;SDS011;46331;49.252;8.904;2023-09-18T03:37:19;6.05;;;2.63;;
60488;SDS011;46331;49.252;8.904;2023-09-18T03:38:00;8.38;;;2.92;;
60488;SDS011;46331;49.252;8.904;2023-09-18T03:38:41;6.50;;;2.83;;
60488;SDS011;46331;49.252;8.904;2023-09-18T03:39:22;5.35;;;2.55;;
60488;SDS011;46331;49.252;8.904;2023-09-18T03:40:02;8.23;;;3.20;;
60488;SDS011;46331;49.252;8.904;2023-09-18T03:40:43;5.82;;;2.92;;
60488;SDS011;46331;49.252;8.904;2023-09-18T03:41:24;8.73;;;4.15;;
60488;SDS011;46331;49.252;8.904;2023-09-18T03:42:06;8.40;;;3.87;;
60488;SDS011;46331;49.252;8.904;2023-09-18T03:42:47;5.88;;;3.20;;
60488;SDS011;46331;49.252;8.904;2023-09-18T03:43:28;7.03;;;3.58;;
60488;SDS011;46331;49.252;8.904;2023-09-18T03:44:08;7.15;;;3.30;;
60488;SDS011;46331;49.252;8.904;2023-09-18T03:44:50;5.43;;;2.80;;
60488;SDS011;46331;49.252;8.904;2023-09-18T03:45:31;5.77;;;3.10;;
60488;SDS011;46331;49.252;8.904;2023-09-18T03:46:11;6.55;;;3.30;;
60488;SDS011;46331;49.252;8.904;2023-09-18T03:46:58;6.13;;;3.00;;
60488;SDS011;46331;49.252;8.904;2023-09-18T03:47:39;7.78;;;3.00;;
60488;SDS011;46331;49.252;8.904;2023-09-18T03:48:20;8.98;;;3.67;;
60488;SDS011;46331;49.252;8.904;2023-09-18T03:49:02;6.63;;;2.90;;
60488;SDS011;46331;49.252;8.904;2023-09-18T03:49:45;5.90;;;2.97;;
60488;SDS011;46331;49.252;8.904;2023-09-18T03:50:26;6.03;;;2.70;;
60488;SDS011;46331;49.252;8.904;2023-09-18T03:51:07;6.72;;;2.70;;
60488;SDS011;46331;49.252;8.904;2023-09-18T03:51:55;5.57;;;2.70;;
60488;SDS011;46331;49.252;8.904;2023-09-18T03:52:37;6.63;;;2.57;;
60488;SDS011;46331;49.252;8.904;2023-09-18T03:53:19;6.35;;;2.88;;
60488;SDS011;46331;49.252;8.904;2023-09-18T03:54:00;5.63;;;2.80;;
60488;SDS011;46331;49.252;8.904;2023-09-18T03:54:40;5.60;;;2.60;;
60488;SDS011;46331;49.252;8.904;2023-09-18T03:55:21;5.10;;;2.60;;
60488;SDS011;46331;49.252;8.904;2023-09-18T03:56:02;6.68;;;2.97;;
60488;SDS011;46331;49.252;8.904;2023-09-18T03:56:43;5.50;;;2.55;;
60488;SDS011;46331;49.252;8.904;2023-09-18T03:57:24;6.47;;;3.00;;
60488;SDS011;46331;49.252;8.904;2023-09-18T03:58:05;7.40;;;3.00;;
60488;SDS011;46331;49.252;8.904;2023-09-18T03:58:46;6.75;;;2.88;;
60488;SDS011;46331;49.252;8.904;2023-09-18T03:59:29;6.18;;;2.85;;
60488;SDS011;46331;49.252;8.904;2023-09-18T04:00:10;6.32;;;2.38;;
60488;SDS011;46331;49.252;8.904;2023-09-18T04:00:55;5.30;;;2.40;;
60488;SDS011;46331;49.252;8.904;2023-09-18T04:01:36;5.10;;;2.40;;
60488;SDS011;46331;49.252;8.904;2023-09-18T04:02:16;5.40;;;2.50;;
60488;SDS011;46331;49.252;8.904;2023-09-18T04:02:57;5.55;;;2.47;;
60488;SDS011;46331;49.252;8.904;2023-09-18T04:03:38;5.47;;;2.50;;
60488;SDS011;46331;49.252;8.904;2023-09-18T04:04:19;5.37;;;2.80;;
60488;SDS011;46331;49.252;8.904;2023-09-18T04:05:00;5.93;;;2.67;;
60488;SDS011;46331;49.252;8.904;2023-09-18T04:05:42;5.43;;;2.55;;
60488;SDS011;46331;49.252;8.904;2023-09-18T04:06:22;5.90;;;2.88;;
60488;SDS011;46331;49.252;8.904;2023-09-18T04:07:07;5.45;;;2.85;;
60488;SDS011;46331;49.252;8.904;2023-09-18T04:07:48;9.10;;;2.95;;
60488;SDS011;46331;49.252;8.904;2023-09-18T04:08:29;6.60;;;2.87;;
60488;SDS011;46331;49.252;8.904;2023-09-18T04:09:10;9.68;;;2.63;;
60488;SDS011;46331;49.252;8.904;2023-09-18T04:09:50;7.53;;;2.60;;
60488;SDS011;46331;49.252;8.904;2023-09-18T04:10:31;9.38;;;2.35;;
60488;SDS011;46331;49.252;8.904;2023-09-18T04:11:13;14.90;;;3.05;;
60488;SDS011;46331;49.252;8.904;2023-09-18T04:11:53;11.48;;;2.47;;
60488;SDS011;46331;49.252;8.904;2023-09-18T04:12:35;10.27;;;2.65;;
60488;SDS011;46331;49.252;8.904;2023-09-18T04:13:16;9.67;;;3.00;;